Terminal Aerodrome Forecast
Issued by NWS Sioux Falls, SD

Home | Current Version | Previous Version | Text Only | Print | Product List | Glossary Off
Versions: 1 2 3 4 5 6 7 8 9 10 11 12 13 14 15

000
FTUS43 KFSD 251720
TAFHON
TAF
KHON 251720Z 2518/2618 02005KT P6SM SCT250
     FM252300 06010KT 5SM TSRA BR BKN060CB
      TEMPO 2523/2601 VRB12G35KT
     FM260200 09010KT 3SM TSRA BR OVC035CB
     FM260600 07006KT 6SM -SHRA VCTS OVC035CB
     FM260900 03004KT P6SM OVC035
     FM261400 02006KT P6SM OVC060=

USA.gov is the U.S. government's official web portal to all federal, state and local government web resources and services.